Irvine, KY

8:29 PM EDT on June 29, 2015 (GMT -0400)
Irvine, Ky. | | Change Station
CLOSE
Current Station
Personal Weather Station
Location: Irvine, KY
Elevation: 719 ft
Nearby Weather Stations
Active Advisory: Tornado Watch Active Notice: Record Report

Elev 719 ft 37.69 °N, 83.96 °W | Updated 11 seconds ago

Partly Cloudy
Partly Cloudy
67.3 °F
Feels Like 67.3 °F
N
1.0
Wind Variable Wind from SSE
Gusts 3.0 mph

Today
High -- | Low -- °F
--% Chance of Precip.
Yesterday
High -- | Low -- °F
Precip. -- in
6:16 AM 9:01 PM
Waxing Gibbous, 95% visible
Pressure 29.85 in
Visibility 10.0 miles
Clouds Clear
Dew Point 66 °F
Humidity 94%
Rainfall 0.46 in
Snow Depth Not available.
UV 0 out of 12
Pollen 2.90 out of 12
Air Quality Not available.
Flu Activity No Activity
METAR KI39 300015Z AUTO 22005KT 10SM CLR 21/18 A2985 RMK AO2

More Conditions Fewer Conditions

Pressure 29.85 in
Visibility 10.0 miles
Clouds Clear
Dew Point 66 °F
Humidity 94%
Rainfall 0.46 in
Snow Depth Not available.
UV 0 out of 12
Pollen 2.90 out of 12
Air Quality Not available.
Flu Activity No Activity
METAR KI39 300015Z AUTO 22005KT 10SM CLR 21/18 A2985 RMK AO2

More Conditions Fewer Conditions

10-Day Weather Forecast

×

Almanac

Astronomy

Jun. 29, 2015 Rise Set
Actual Time
Civil Twilight
Nautical Twilight
Astronomical Twilight
Moon
Length of Visible Light
Length of Day
Tomorrow will be .
, % of the Moon is Illuminated

Today's Extremes

State Highs State Lows

Community

WunderPhotos

Upload Photos

1,833,899 photos uploaded!

WunderBlogs® & News

Nearby

Air Quality

  Air Quality AQ Index Pollutant
Not available.

Snow Depth

Station Depth Elevation

Earthquake Activity

City Distance Mag. Time & Date
Minimum magnitude displayed is 2.5.

Coastal Water Temperatures

Place Temperature

Stations

Nearby Weather Stations

Station Location Temp. Windchill Dew Point Humidity Wind Precip. Elev Updated Type
                   
Tornado Watch
Statement as of 8:23 PM EDT on June 29, 2015

Tornado Watch 369 remains in effect until 900 PM EDT for the
following locations


KY
. Kentucky counties included are

Bath Bell Boyd
Bracken Breathitt Carter
Clay Elliott Estill
Fleming Greenup Jackson
Johnson Knox Laurel
Lawrence Lee Lewis
McCreary Magoffin Martin
Mason Menifee Montgomery
Morgan Owsley Powell
Pulaski Robertson Rockcastle
Rowan Wayne Whitley
Wolfe